Aérodrome :
LOGIN :

S'inscrire | Disclaimer

   EN    FR    IT 

 










Légende :    VFR   VFR Marginal   IFR   IFR Intensif   IFR Très Intensif
Visi : 
Plafond : 
>= 8 km
>= 3000ft
5 à 8 km
1000 à 3000 ft
1500m à 5 km
500 à 1000 ft
800 à 1500m
200 à 500 ft
< 800m
< 200 ft
Symboles :   Orages  Brouillard  Fortes neiges  Fortes précipitations  Vent > 20 kt
SIGMETs :   Divers  Orages  Givrage  Turbulence  Onde Orograph.  Cendres Volcan.







- Altitude de l'aérodrome : 1090 ft
- Code IATA : CFE
- Voir les cartes d'approche


LFLC - Clermont-Ferrand Auvergne

DERNIER METAR :
  • 241930Z AUTO 34007KT 310V010 CAVOK 19/07 Q1015 NOSIG

METARs EXPIRÉS :
  • 241900Z AUTO 34008KT 310V010 CAVOK 20/06 Q1015 TEMPO SHRA BKN055TCU
  • 241830Z AUTO 34009KT 320V020 CAVOK 20/06 Q1015 TEMPO SHRA BKN055TCU
  • 241800Z AUTO 35010KT 320V020 9999 FEW062 20/06 Q1015 TEMPO SHRA BKN055TCU
  • 241730Z AUTO 35012KT 320V020 9999 FEW062 21/06 Q1014 TEMPO SHRA BKN055TCU
  • 241700Z AUTO 35010KT 320V020 9999 SCT066 SCT078 BKN098 21/06 Q1014 TEMPO SHRA BKN055TCU

TAF TAF LFLC
Valide du 24 à 15h jusqu'au 25 à 15h UTC


241400Z 2415/2515 04010KT CAVOK
TEMPO 2415/2420 SCT060TCU
PROB40
TEMPO 2415/2420 SHRA BKN055TCU
BECMG 2420/2422 VRB03KT
BECMG 2504/2506 BKN030 BKN066
BECMG 2506/2509 SHRA SCT030TCU BKN060
ATIS : +33 4 73 62 74 38
Pas de NOTAMs connus pour ce terrain.



MET'MAP, la Météo Aéronautique d'un coup d'oeil ! - Copyright ORBIFLY Décembre 2007 - Disclaimer

ORBIFLY MET'MAP TEAM :

Programmation & Développement : Alexandra Zaïnal
Conception & Développement : Baudouin d'Aumeries
Co-Programmation & Développement : Marc-Olivier Méhu
Soutien technique & logistique : Manuel Goepfert

Contact : metmap@orbifly.com




SOURCES & CREDITS :

   NOAA